sensor_id;sensor_type;location;lat;lon;timestamp;pressure;altitude;pressure_sealevel;temperature
11849;BMP180;5983;49.966;8.052;2023-05-09T00:01:43;100818.00;;;14.90
11849;BMP180;5983;49.966;8.052;2023-05-09T00:04:12;100817.00;;;14.90
11849;BMP180;5983;49.966;8.052;2023-05-09T00:06:40;100819.00;;;14.90
11849;BMP180;5983;49.966;8.052;2023-05-09T00:09:07;100811.00;;;15.00
11849;BMP180;5983;49.966;8.052;2023-05-09T00:11:34;100812.00;;;14.90
11849;BMP180;5983;49.966;8.052;2023-05-09T00:14:00;100806.00;;;14.90
11849;BMP180;5983;49.966;8.052;2023-05-09T00:16:28;100802.00;;;14.90
11849;BMP180;5983;49.966;8.052;2023-05-09T00:18:57;100807.00;;;14.90
11849;BMP180;5983;49.966;8.052;2023-05-09T00:21:25;100807.00;;;14.90
11849;BMP180;5983;49.966;8.052;2023-05-09T00:23:52;100799.00;;;14.80
11849;BMP180;5983;49.966;8.052;2023-05-09T00:26:19;100806.00;;;14.80
11849;BMP180;5983;49.966;8.052;2023-05-09T00:28:46;100805.00;;;14.80
11849;BMP180;5983;49.966;8.052;2023-05-09T00:31:13;100805.00;;;14.80
11849;BMP180;5983;49.966;8.052;2023-05-09T00:33:40;100797.00;;;14.70
11849;BMP180;5983;49.966;8.052;2023-05-09T00:36:07;100788.00;;;14.70
11849;BMP180;5983;49.966;8.052;2023-05-09T00:38:35;100790.00;;;14.70
11849;BMP180;5983;49.966;8.052;2023-05-09T00:41:02;100797.00;;;14.70
11849;BMP180;5983;49.966;8.052;2023-05-09T00:43:28;100797.00;;;14.70
11849;BMP180;5983;49.966;8.052;2023-05-09T00:45:55;100802.00;;;14.70
11849;BMP180;5983;49.966;8.052;2023-05-09T00:48:22;100804.00;;;14.70
11849;BMP180;5983;49.966;8.052;2023-05-09T00:50:49;100799.00;;;14.70
11849;BMP180;5983;49.966;8.052;2023-05-09T00:53:17;100788.00;;;14.70
11849;BMP180;5983;49.966;8.052;2023-05-09T00:55:46;100788.00;;;14.80
11849;BMP180;5983;49.966;8.052;2023-05-09T00:58:13;100778.00;;;14.80
11849;BMP180;5983;49.966;8.052;2023-05-09T01:00:40;100777.00;;;14.80
11849;BMP180;5983;49.966;8.052;2023-05-09T01:03:07;100762.00;;;14.80
11849;BMP180;5983;49.966;8.052;2023-05-09T01:05:41;100771.00;;;14.70
11849;BMP180;5983;49.966;8.052;2023-05-09T01:08:12;100768.00;;;14.70
11849;BMP180;5983;49.966;8.052;2023-05-09T01:10:50;100765.00;;;14.70
11849;BMP180;5983;49.966;8.052;2023-05-09T01:13:24;100767.00;;;14.70
11849;BMP180;5983;49.966;8.052;2023-05-09T01:15:53;100760.00;;;14.70
11849;BMP180;5983;49.966;8.052;2023-05-09T01:18:29;100755.00;;;14.70
11849;BMP180;5983;49.966;8.052;2023-05-09T01:21:02;100752.00;;;14.70
11849;BMP180;5983;49.966;8.052;2023-05-09T01:23:49;100757.00;;;14.70
11849;BMP180;5983;49.966;8.052;2023-05-09T01:26:24;100746.00;;;14.70
11849;BMP180;5983;49.966;8.052;2023-05-09T01:29:16;100756.00;;;14.70
11849;BMP180;5983;49.966;8.052;2023-05-09T01:31:48;100746.00;;;14.70
11849;BMP180;5983;49.966;8.052;2023-05-09T01:34:16;100737.00;;;14.60
11849;BMP180;5983;49.966;8.052;2023-05-09T01:36:45;100730.00;;;14.60
11849;BMP180;5983;49.966;8.052;2023-05-09T01:39:16;100739.00;;;14.50
11849;BMP180;5983;49.966;8.052;2023-05-09T01:41:45;100739.00;;;14.50
11849;BMP180;5983;49.966;8.052;2023-05-09T01:44:15;100744.00;;;14.50
11849;BMP180;5983;49.966;8.052;2023-05-09T01:46:43;100732.00;;;14.50
11849;BMP180;5983;49.966;8.052;2023-05-09T01:49:10;100740.00;;;14.50
11849;BMP180;5983;49.966;8.052;2023-05-09T01:51:38;100741.00;;;14.50
11849;BMP180;5983;49.966;8.052;2023-05-09T01:54:06;100735.00;;;14.50
11849;BMP180;5983;49.966;8.052;2023-05-09T01:56:35;100738.00;;;14.50
11849;BMP180;5983;49.966;8.052;2023-05-09T01:59:04;100722.00;;;14.50
11849;BMP180;5983;49.966;8.052;2023-05-09T02:01:33;100725.00;;;14.50
11849;BMP180;5983;49.966;8.052;2023-05-09T02:04:02;100721.00;;;14.40
11849;BMP180;5983;49.966;8.052;2023-05-09T02:06:30;100723.00;;;14.40
11849;BMP180;5983;49.966;8.052;2023-05-09T02:08:58;100735.00;;;14.50
11849;BMP180;5983;49.966;8.052;2023-05-09T02:11:25;100734.00;;;14.50
11849;BMP180;5983;49.966;8.052;2023-05-09T02:13:51;100734.00;;;14.50
11849;BMP180;5983;49.966;8.052;2023-05-09T02:16:18;100733.00;;;14.40
11849;BMP180;5983;49.966;8.052;2023-05-09T02:18:46;100725.00;;;14.40
11849;BMP180;5983;49.966;8.052;2023-05-09T02:21:13;100721.00;;;14.40
11849;BMP180;5983;49.966;8.052;2023-05-09T02:23:40;100722.00;;;14.40
11849;BMP180;5983;49.966;8.052;2023-05-09T02:26:07;100718.00;;;14.40
11849;BMP180;5983;49.966;8.052;2023-05-09T02:28:35;100716.00;;;14.40
11849;BMP180;5983;49.966;8.052;2023-05-09T02:31:04;100721.00;;;14.40
11849;BMP180;5983;49.966;8.052;2023-05-09T02:33:34;100718.00;;;14.30
11849;BMP180;5983;49.966;8.052;2023-05-09T02:36:04;100719.00;;;14.30
11849;BMP180;5983;49.966;8.052;2023-05-09T02:38:31;100705.00;;;14.30
11849;BMP180;5983;49.966;8.052;2023-05-09T02:40:58;100713.00;;;14.30
11849;BMP180;5983;49.966;8.052;2023-05-09T02:43:25;100704.00;;;14.30
11849;BMP180;5983;49.966;8.052;2023-05-09T02:45:51;100707.00;;;14.30
11849;BMP180;5983;49.966;8.052;2023-05-09T02:48:18;100706.00;;;14.30
11849;BMP180;5983;49.966;8.052;2023-05-09T02:50:45;100708.00;;;14.30
11849;BMP180;5983;49.966;8.052;2023-05-09T02:53:13;100706.00;;;14.30
11849;BMP180;5983;49.966;8.052;2023-05-09T02:55:40;100711.00;;;14.30
11849;BMP180;5983;49.966;8.052;2023-05-09T02:58:07;100721.00;;;14.30
11849;BMP180;5983;49.966;8.052;2023-05-09T03:00:34;100715.00;;;14.30
11849;BMP180;5983;49.966;8.052;2023-05-09T03:03:01;100715.00;;;14.20
11849;BMP180;5983;49.966;8.052;2023-05-09T03:05:27;100709.00;;;14.20
11849;BMP180;5983;49.966;8.052;2023-05-09T03:07:54;100710.00;;;14.20
11849;BMP180;5983;49.966;8.052;2023-05-09T03:10:22;100706.00;;;14.30
11849;BMP180;5983;49.966;8.052;2023-05-09T03:12:49;100712.00;;;14.30
11849;BMP180;5983;49.966;8.052;2023-05-09T03:15:16;100707.00;;;14.30
11849;BMP180;5983;49.966;8.052;2023-05-09T03:17:42;100702.00;;;14.30
11849;BMP180;5983;49.966;8.052;2023-05-09T03:20:09;100692.00;;;14.30
11849;BMP180;5983;49.966;8.052;2023-05-09T03:22:37;100683.00;;;14.30
11849;BMP180;5983;49.966;8.052;2023-05-09T03:25:04;100684.00;;;14.40
11849;BMP180;5983;49.966;8.052;2023-05-09T03:27:32;100686.00;;;14.40
11849;BMP180;5983;49.966;8.052;2023-05-09T03:29:59;100677.00;;;14.40
11849;BMP180;5983;49.966;8.052;2023-05-09T03:32:26;100675.00;;;14.40
11849;BMP180;5983;49.966;8.052;2023-05-09T03:34:52;100684.00;;;14.30
11849;BMP180;5983;49.966;8.052;2023-05-09T03:37:20;100677.00;;;14.30
11849;BMP180;5983;49.966;8.052;2023-05-09T03:39:46;100671.00;;;14.30
11849;BMP180;5983;49.966;8.052;2023-05-09T03:42:13;100673.00;;;14.30
11849;BMP180;5983;49.966;8.052;2023-05-09T03:44:41;100666.00;;;14.30
11849;BMP180;5983;49.966;8.052;2023-05-09T03:47:08;100662.00;;;14.30
11849;BMP180;5983;49.966;8.052;2023-05-09T03:49:35;100671.00;;;14.30
11849;BMP180;5983;49.966;8.052;2023-05-09T03:52:02;100662.00;;;14.30
11849;BMP180;5983;49.966;8.052;2023-05-09T03:54:29;100666.00;;;14.40
11849;BMP180;5983;49.966;8.052;2023-05-09T03:56:55;100666.00;;;14.40
11849;BMP180;5983;49.966;8.052;2023-05-09T03:59:22;100675.00;;;14.40
11849;BMP180;5983;49.966;8.052;2023-05-09T04:01:50;100671.00;;;14.40
11849;BMP180;5983;49.966;8.052;2023-05-09T04:04:18;100679.00;;;14.40
11849;BMP180;5983;49.966;8.052;2023-05-09T04:06:45;100676.00;;;14.50
11849;BMP180;5983;49.966;8.052;2023-05-09T04:09:12;100668.00;;;14.50
11849;BMP180;5983;49.966;8.052;2023-05-09T04:11:40;100667.00;;;14.50
11849;BMP180;5983;49.966;8.052;2023-05-09T04:14:06;100668.00;;;14.50
11849;BMP180;5983;49.966;8.052;2023-05-09T04:16:33;100661.00;;;14.40
11849;BMP180;5983;49.966;8.052;2023-05-09T04:19:01;100672.00;;;14.40
11849;BMP180;5983;49.966;8.052;2023-05-09T04:21:28;100669.00;;;14.40
11849;BMP180;5983;49.966;8.052;2023-05-09T04:23:56;100669.00;;;14.50
11849;BMP180;5983;49.966;8.052;2023-05-09T04:26:23;100665.00;;;14.50
11849;BMP180;5983;49.966;8.052;2023-05-09T04:28:50;100666.00;;;14.50
11849;BMP180;5983;49.966;8.052;2023-05-09T04:31:17;100667.00;;;14.50
11849;BMP180;5983;49.966;8.052;2023-05-09T04:33:44;100661.00;;;14.60
11849;BMP180;5983;49.966;8.052;2023-05-09T04:36:12;100661.00;;;14.60
11849;BMP180;5983;49.966;8.052;2023-05-09T04:38:38;100658.00;;;14.60
11849;BMP180;5983;49.966;8.052;2023-05-09T04:41:05;100654.00;;;14.60
11849;BMP180;5983;49.966;8.052;2023-05-09T04:43:32;100654.00;;;14.60
11849;BMP180;5983;49.966;8.052;2023-05-09T04:45:59;100653.00;;;14.60
11849;BMP180;5983;49.966;8.052;2023-05-09T04:48:27;100655.00;;;14.60
11849;BMP180;5983;49.966;8.052;2023-05-09T04:50:53;100650.00;;;14.60
11849;BMP180;5983;49.966;8.052;2023-05-09T04:53:21;100647.00;;;14.70
11849;BMP180;5983;49.966;8.052;2023-05-09T04:55:48;100641.00;;;14.70
11849;BMP180;5983;49.966;8.052;2023-05-09T04:58:16;100641.00;;;14.80
11849;BMP180;5983;49.966;8.052;2023-05-09T05:00:43;100639.00;;;14.80
11849;BMP180;5983;49.966;8.052;2023-05-09T05:03:10;100633.00;;;14.80
11849;BMP180;5983;49.966;8.052;2023-05-09T05:05:37;100629.00;;;14.90
11849;BMP180;5983;49.966;8.052;2023-05-09T05:08:05;100633.00;;;14.90
11849;BMP180;5983;49.966;8.052;2023-05-09T05:10:33;100623.00;;;15.00
11849;BMP180;5983;49.966;8.052;2023-05-09T05:12:59;100629.00;;;15.10
11849;BMP180;5983;49.966;8.052;2023-05-09T05:15:26;100631.00;;;15.10
11849;BMP180;5983;49.966;8.052;2023-05-09T05:17:53;100621.00;;;15.10
11849;BMP180;5983;49.966;8.052;2023-05-09T05:20:20;100630.00;;;15.20
11849;BMP180;5983;49.966;8.052;2023-05-09T05:22:46;100614.00;;;15.20
11849;BMP180;5983;49.966;8.052;2023-05-09T05:25:13;100628.00;;;15.30
11849;BMP180;5983;49.966;8.052;2023-05-09T05:27:43;100630.00;;;15.40
11849;BMP180;5983;49.966;8.052;2023-05-09T05:30:11;100621.00;;;15.40
11849;BMP180;5983;49.966;8.052;2023-05-09T05:32:39;100629.00;;;15.50
11849;BMP180;5983;49.966;8.052;2023-05-09T05:35:07;100628.00;;;15.50
11849;BMP180;5983;49.966;8.052;2023-05-09T05:37:36;100618.00;;;15.50
11849;BMP180;5983;49.966;8.052;2023-05-09T05:40:03;100633.00;;;15.60
11849;BMP180;5983;49.966;8.052;2023-05-09T05:42:31;100627.00;;;15.60
11849;BMP180;5983;49.966;8.052;2023-05-09T05:44:59;100624.00;;;15.70
11849;BMP180;5983;49.966;8.052;2023-05-09T05:47:30;100629.00;;;15.70
11849;BMP180;5983;49.966;8.052;2023-05-09T05:49:57;100610.00;;;15.80
11849;BMP180;5983;49.966;8.052;2023-05-09T05:52:24;100624.00;;;15.80
11849;BMP180;5983;49.966;8.052;2023-05-09T05:54:50;100624.00;;;15.90
11849;BMP180;5983;49.966;8.052;2023-05-09T05:57:17;100620.00;;;15.90
11849;BMP180;5983;49.966;8.052;2023-05-09T05:59:45;100609.00;;;15.90
11849;BMP180;5983;49.966;8.052;2023-05-09T06:02:13;100605.00;;;15.90
11849;BMP180;5983;49.966;8.052;2023-05-09T06:04:40;100609.00;;;15.90
11849;BMP180;5983;49.966;8.052;2023-05-09T06:07:07;100623.00;;;15.90
11849;BMP180;5983;49.966;8.052;2023-05-09T06:09:34;100618.00;;;15.90
11849;BMP180;5983;49.966;8.052;2023-05-09T06:12:00;100616.00;;;15.90
11849;BMP180;5983;49.966;8.052;2023-05-09T06:14:27;100617.00;;;15.80
11849;BMP180;5983;49.966;8.052;2023-05-09T06:16:54;100612.00;;;15.80
11849;BMP180;5983;49.966;8.052;2023-05-09T06:19:22;100604.00;;;15.90
11849;BMP180;5983;49.966;8.052;2023-05-09T06:21:49;100604.00;;;15.90
11849;BMP180;5983;49.966;8.052;2023-05-09T06:24:15;100610.00;;;15.90
11849;BMP180;5983;49.966;8.052;2023-05-09T06:26:42;100607.00;;;15.90
11849;BMP180;5983;49.966;8.052;2023-05-09T06:29:09;100605.00;;;15.90
11849;BMP180;5983;49.966;8.052;2023-05-09T06:31:35;100603.00;;;16.00
11849;BMP180;5983;49.966;8.052;2023-05-09T06:34:03;100594.00;;;16.10
11849;BMP180;5983;49.966;8.052;2023-05-09T06:36:31;100591.00;;;16.10
11849;BMP180;5983;49.966;8.052;2023-05-09T06:38:57;100583.00;;;16.20
11849;BMP180;5983;49.966;8.052;2023-05-09T06:41:24;100577.00;;;16.20
11849;BMP180;5983;49.966;8.052;2023-05-09T06:43:51;100580.00;;;16.20
11849;BMP180;5983;49.966;8.052;2023-05-09T06:46:18;100578.00;;;16.20
11849;BMP180;5983;49.966;8.052;2023-05-09T06:48:45;100568.00;;;16.30
11849;BMP180;5983;49.966;8.052;2023-05-09T06:51:11;100575.00;;;16.40
11849;BMP180;5983;49.966;8.052;2023-05-09T06:53:39;100588.00;;;16.50
11849;BMP180;5983;49.966;8.052;2023-05-09T06:56:06;100563.00;;;16.60
11849;BMP180;5983;49.966;8.052;2023-05-09T06:58:33;100564.00;;;16.60
11849;BMP180;5983;49.966;8.052;2023-05-09T07:01:00;100568.00;;;16.70
11849;BMP180;5983;49.966;8.052;2023-05-09T07:03:28;100563.00;;;16.70
11849;BMP180;5983;49.966;8.052;2023-05-09T07:05:55;100569.00;;;16.70
11849;BMP180;5983;49.966;8.052;2023-05-09T07:08:24;100553.00;;;16.80
11849;BMP180;5983;49.966;8.052;2023-05-09T07:10:52;100543.00;;;17.00
11849;BMP180;5983;49.966;8.052;2023-05-09T07:13:19;100543.00;;;17.30
11849;BMP180;5983;49.966;8.052;2023-05-09T07:15:45;100541.00;;;17.70
11849;BMP180;5983;49.966;8.052;2023-05-09T07:18:12;100536.00;;;18.00
11849;BMP180;5983;49.966;8.052;2023-05-09T07:20:39;100537.00;;;18.20
11849;BMP180;5983;49.966;8.052;2023-05-09T07:23:05;100544.00;;;18.30
11849;BMP180;5983;49.966;8.052;2023-05-09T07:25:32;100538.00;;;18.20
11849;BMP180;5983;49.966;8.052;2023-05-09T07:28:00;100536.00;;;18.30
11849;BMP180;5983;49.966;8.052;2023-05-09T07:30:27;100541.00;;;18.30
11849;BMP180;5983;49.966;8.052;2023-05-09T07:32:53;100534.00;;;18.20
11849;BMP180;5983;49.966;8.052;2023-05-09T07:35:20;100528.00;;;18.10
11849;BMP180;5983;49.966;8.052;2023-05-09T07:37:47;100519.00;;;18.10
11849;BMP180;5983;49.966;8.052;2023-05-09T07:40:14;100512.00;;;18.10
11849;BMP180;5983;49.966;8.052;2023-05-09T07:42:40;100512.00;;;18.10
11849;BMP180;5983;49.966;8.052;2023-05-09T07:45:12;100508.00;;;18.10
11849;BMP180;5983;49.966;8.052;2023-05-09T07:47:38;100510.00;;;18.10
11849;BMP180;5983;49.966;8.052;2023-05-09T07:50:06;100513.00;;;18.00
11849;BMP180;5983;49.966;8.052;2023-05-09T07:52:32;100507.00;;;17.90
11849;BMP180;5983;49.966;8.052;2023-05-09T07:54:59;100504.00;;;17.90
11849;BMP180;5983;49.966;8.052;2023-05-09T07:57:26;100499.00;;;17.90
11849;BMP180;5983;49.966;8.052;2023-05-09T07:59:53;100503.00;;;17.90
11849;BMP180;5983;49.966;8.052;2023-05-09T08:02:21;100493.00;;;18.00
11849;BMP180;5983;49.966;8.052;2023-05-09T08:04:47;100484.00;;;18.00
11849;BMP180;5983;49.966;8.052;2023-05-09T08:07:14;100491.00;;;18.10
11849;BMP180;5983;49.966;8.052;2023-05-09T08:09:41;100493.00;;;18.20
11849;BMP180;5983;49.966;8.052;2023-05-09T08:12:08;100492.00;;;18.20
11849;BMP180;5983;49.966;8.052;2023-05-09T08:14:34;100486.00;;;18.10
11849;BMP180;5983;49.966;8.052;2023-05-09T08:17:01;100485.00;;;18.00
11849;BMP180;5983;49.966;8.052;2023-05-09T08:19:29;100479.00;;;18.00
11849;BMP180;5983;49.966;8.052;2023-05-09T08:21:56;100480.00;;;17.90
11849;BMP180;5983;49.966;8.052;2023-05-09T08:24:22;100483.00;;;17.80
11849;BMP180;5983;49.966;8.052;2023-05-09T08:26:49;100480.00;;;17.80
11849;BMP180;5983;49.966;8.052;2023-05-09T08:29:16;100475.00;;;17.70
11849;BMP180;5983;49.966;8.052;2023-05-09T08:31:42;100469.00;;;17.60
11849;BMP180;5983;49.966;8.052;2023-05-09T08:34:09;100469.00;;;17.60
11849;BMP180;5983;49.966;8.052;2023-05-09T08:36:37;100463.00;;;17.50
11849;BMP180;5983;49.966;8.052;2023-05-09T08:39:05;100460.00;;;17.50
11849;BMP180;5983;49.966;8.052;2023-05-09T08:41:33;100462.00;;;17.40
11849;BMP180;5983;49.966;8.052;2023-05-09T08:44:00;100450.00;;;17.50
11849;BMP180;5983;49.966;8.052;2023-05-09T08:46:31;100452.00;;;17.50
11849;BMP180;5983;49.966;8.052;2023-05-09T08:48:59;100450.00;;;17.50
11849;BMP180;5983;49.966;8.052;2023-05-09T08:51:26;100452.00;;;17.50
11849;BMP180;5983;49.966;8.052;2023-05-09T08:53:56;100442.00;;;17.50
11849;BMP180;5983;49.966;8.052;2023-05-09T08:56:23;100446.00;;;17.50
11849;BMP180;5983;49.966;8.052;2023-05-09T08:58:52;100448.00;;;17.50
11849;BMP180;5983;49.966;8.052;2023-05-09T09:01:20;100446.00;;;17.50
11849;BMP180;5983;49.966;8.052;2023-05-09T09:03:47;100447.00;;;17.50
11849;BMP180;5983;49.966;8.052;2023-05-09T09:06:14;100444.00;;;17.60
11849;BMP180;5983;49.966;8.052;2023-05-09T09:08:43;100441.00;;;17.60
11849;BMP180;5983;49.966;8.052;2023-05-09T09:11:12;100444.00;;;17.60
11849;BMP180;5983;49.966;8.052;2023-05-09T09:13:40;100437.00;;;17.70
11849;BMP180;5983;49.966;8.052;2023-05-09T09:16:08;100433.00;;;17.70
11849;BMP180;5983;49.966;8.052;2023-05-09T09:18:36;100427.00;;;17.70
11849;BMP180;5983;49.966;8.052;2023-05-09T09:21:05;100422.00;;;17.80
11849;BMP180;5983;49.966;8.052;2023-05-09T09:23:32;100413.00;;;17.80
11849;BMP180;5983;49.966;8.052;2023-05-09T09:26:01;100414.00;;;17.80
11849;BMP180;5983;49.966;8.052;2023-05-09T09:28:30;100417.00;;;17.80
11849;BMP180;5983;49.966;8.052;2023-05-09T09:30:57;100410.00;;;17.80
11849;BMP180;5983;49.966;8.052;2023-05-09T09:33:25;100403.00;;;17.80
11849;BMP180;5983;49.966;8.052;2023-05-09T09:35:55;100404.00;;;17.80
11849;BMP180;5983;49.966;8.052;2023-05-09T09:38:23;100400.00;;;17.80
11849;BMP180;5983;49.966;8.052;2023-05-09T09:40:54;100403.00;;;17.80
11849;BMP180;5983;49.966;8.052;2023-05-09T09:43:26;100399.00;;;17.80
11849;BMP180;5983;49.966;8.052;2023-05-09T09:45:55;100400.00;;;17.70
11849;BMP180;5983;49.966;8.052;2023-05-09T09:48:25;100398.00;;;17.60
11849;BMP180;5983;49.966;8.052;2023-05-09T09:50:53;100392.00;;;17.60
11849;BMP180;5983;49.966;8.052;2023-05-09T09:56:38;100384.00;;;17.50
11849;BMP180;5983;49.966;8.052;2023-05-09T09:59:09;100374.00;;;17.50
11849;BMP180;5983;49.966;8.052;2023-05-09T10:01:53;100367.00;;;17.40
11849;BMP180;5983;49.966;8.052;2023-05-09T10:04:21;100374.00;;;17.40
11849;BMP180;5983;49.966;8.052;2023-05-09T10:06:51;100361.00;;;17.40
11849;BMP180;5983;49.966;8.052;2023-05-09T10:09:20;100373.00;;;17.40
11849;BMP180;5983;49.966;8.052;2023-05-09T10:11:48;100357.00;;;17.40
11849;BMP180;5983;49.966;8.052;2023-05-09T10:14:15;100362.00;;;17.40
11849;BMP180;5983;49.966;8.052;2023-05-09T10:16:45;100350.00;;;17.40
11849;BMP180;5983;49.966;8.052;2023-05-09T10:19:16;100344.00;;;17.40
11849;BMP180;5983;49.966;8.052;2023-05-09T10:21:47;100337.00;;;17.50
11849;BMP180;5983;49.966;8.052;2023-05-09T10:24:17;100344.00;;;17.60
11849;BMP180;5983;49.966;8.052;2023-05-09T10:26:48;100335.00;;;17.70
11849;BMP180;5983;49.966;8.052;2023-05-09T10:29:17;100333.00;;;17.90
11849;BMP180;5983;49.966;8.052;2023-05-09T10:31:51;100330.00;;;18.20
11849;BMP180;5983;49.966;8.052;2023-05-09T10:34:21;100321.00;;;18.60
11849;BMP180;5983;49.966;8.052;2023-05-09T10:36:50;100316.00;;;19.00
11849;BMP180;5983;49.966;8.052;2023-05-09T10:39:18;100310.00;;;19.50
11849;BMP180;5983;49.966;8.052;2023-05-09T10:41:45;100314.00;;;19.80
11849;BMP180;5983;49.966;8.052;2023-05-09T10:44:15;100309.00;;;20.30
11849;BMP180;5983;49.966;8.052;2023-05-09T10:46:42;100302.00;;;20.80
11849;BMP180;5983;49.966;8.052;2023-05-09T10:49:10;100306.00;;;21.10
11849;BMP180;5983;49.966;8.052;2023-05-09T10:51:39;100300.00;;;21.20
11849;BMP180;5983;49.966;8.052;2023-05-09T10:54:12;100293.00;;;21.40
11849;BMP180;5983;49.966;8.052;2023-05-09T10:56:39;100292.00;;;21.50
11849;BMP180;5983;49.966;8.052;2023-05-09T10:59:41;100292.00;;;21.90
11849;BMP180;5983;49.966;8.052;2023-05-09T11:02:12;100275.00;;;22.20
11849;BMP180;5983;49.966;8.052;2023-05-09T11:04:39;100269.00;;;22.30
11849;BMP180;5983;49.966;8.052;2023-05-09T11:07:21;100269.00;;;22.40
11849;BMP180;5983;49.966;8.052;2023-05-09T11:09:50;100258.00;;;22.50
11849;BMP180;5983;49.966;8.052;2023-05-09T11:12:19;100258.00;;;22.50
11849;BMP180;5983;49.966;8.052;2023-05-09T11:14:48;100256.00;;;22.50
11849;BMP180;5983;49.966;8.052;2023-05-09T11:17:27;100255.00;;;22.30
11849;BMP180;5983;49.966;8.052;2023-05-09T11:20:02;100246.00;;;22.10
11849;BMP180;5983;49.966;8.052;2023-05-09T11:22:37;100247.00;;;21.80
11849;BMP180;5983;49.966;8.052;2023-05-09T11:25:06;100246.00;;;21.50
11849;BMP180;5983;49.966;8.052;2023-05-09T11:27:39;100239.00;;;21.20
11849;BMP180;5983;49.966;8.052;2023-05-09T11:30:10;100241.00;;;20.90
11849;BMP180;5983;49.966;8.052;2023-05-09T11:32:44;100236.00;;;20.70
11849;BMP180;5983;49.966;8.052;2023-05-09T11:35:12;100236.00;;;20.60
11849;BMP180;5983;49.966;8.052;2023-05-09T11:37:47;100219.00;;;20.50
11849;BMP180;5983;49.966;8.052;2023-05-09T11:40:16;100217.00;;;20.30
11849;BMP180;5983;49.966;8.052;2023-05-09T11:42:44;100223.00;;;20.20
11849;BMP180;5983;49.966;8.052;2023-05-09T11:45:13;100218.00;;;20.00
11849;BMP180;5983;49.966;8.052;2023-05-09T11:47:40;100217.00;;;20.00
11849;BMP180;5983;49.966;8.052;2023-05-09T11:50:08;100210.00;;;19.90
11849;BMP180;5983;49.966;8.052;2023-05-09T11:52:35;100202.00;;;20.00
11849;BMP180;5983;49.966;8.052;2023-05-09T11:55:05;100194.00;;;20.00
11849;BMP180;5983;49.966;8.052;2023-05-09T11:57:32;100196.00;;;20.00
11849;BMP180;5983;49.966;8.052;2023-05-09T11:59:59;100189.00;;;20.10
11849;BMP180;5983;49.966;8.052;2023-05-09T12:02:28;100185.00;;;20.20
11849;BMP180;5983;49.966;8.052;2023-05-09T12:04:55;100179.00;;;20.30
11849;BMP180;5983;49.966;8.052;2023-05-09T12:07:22;100191.00;;;20.40
11849;BMP180;5983;49.966;8.052;2023-05-09T12:09:48;100190.00;;;20.50
11849;BMP180;5983;49.966;8.052;2023-05-09T12:12:17;100175.00;;;20.50
11849;BMP180;5983;49.966;8.052;2023-05-09T12:14:47;100173.00;;;20.60
11849;BMP180;5983;49.966;8.052;2023-05-09T12:17:14;100179.00;;;20.80
11849;BMP180;5983;49.966;8.052;2023-05-09T12:19:43;100167.00;;;20.80
11849;BMP180;5983;49.966;8.052;2023-05-09T12:22:09;100164.00;;;20.80
11849;BMP180;5983;49.966;8.052;2023-05-09T12:24:36;100158.00;;;20.90
11849;BMP180;5983;49.966;8.052;2023-05-09T12:27:03;100152.00;;;20.90
11849;BMP180;5983;49.966;8.052;2023-05-09T12:29:32;100147.00;;;20.90
11849;BMP180;5983;49.966;8.052;2023-05-09T12:31:59;100143.00;;;20.80
11849;BMP180;5983;49.966;8.052;2023-05-09T12:34:26;100138.00;;;20.80
11849;BMP180;5983;49.966;8.052;2023-05-09T12:36:54;100143.00;;;20.80
11849;BMP180;5983;49.966;8.052;2023-05-09T12:39:22;100132.00;;;20.80
11849;BMP180;5983;49.966;8.052;2023-05-09T12:41:51;100135.00;;;20.80
11849;BMP180;5983;49.966;8.052;2023-05-09T12:44:20;100130.00;;;20.80
11849;BMP180;5983;49.966;8.052;2023-05-09T12:46:57;100127.00;;;20.80
11849;BMP180;5983;49.966;8.052;2023-05-09T12:49:24;100125.00;;;20.80
11849;BMP180;5983;49.966;8.052;2023-05-09T12:51:54;100113.00;;;20.80
11849;BMP180;5983;49.966;8.052;2023-05-09T12:54:21;100109.00;;;20.80
11849;BMP180;5983;49.966;8.052;2023-05-09T12:56:49;100107.00;;;20.70
11849;BMP180;5983;49.966;8.052;2023-05-09T12:59:21;100109.00;;;20.70
11849;BMP180;5983;49.966;8.052;2023-05-09T13:01:53;100109.00;;;20.70
11849;BMP180;5983;49.966;8.052;2023-05-09T13:04:21;100106.00;;;20.70
11849;BMP180;5983;49.966;8.052;2023-05-09T13:06:49;100103.00;;;20.60
11849;BMP180;5983;49.966;8.052;2023-05-09T13:09:17;100095.00;;;20.50
11849;BMP180;5983;49.966;8.052;2023-05-09T13:11:44;100097.00;;;20.40
11849;BMP180;5983;49.966;8.052;2023-05-09T13:14:12;100091.00;;;20.40
11849;BMP180;5983;49.966;8.052;2023-05-09T13:16:39;100091.00;;;20.40
11849;BMP180;5983;49.966;8.052;2023-05-09T13:19:07;100102.00;;;20.40
11849;BMP180;5983;49.966;8.052;2023-05-09T13:21:34;100079.00;;;20.30
11849;BMP180;5983;49.966;8.052;2023-05-09T13:24:01;100081.00;;;20.30
11849;BMP180;5983;49.966;8.052;2023-05-09T13:26:29;100076.00;;;20.40
11849;BMP180;5983;49.966;8.052;2023-05-09T13:28:56;100070.00;;;20.40
11849;BMP180;5983;49.966;8.052;2023-05-09T13:31:23;100066.00;;;20.40
11849;BMP180;5983;49.966;8.052;2023-05-09T13:33:50;100067.00;;;20.40
11849;BMP180;5983;49.966;8.052;2023-05-09T13:36:17;100059.00;;;20.40
11849;BMP180;5983;49.966;8.052;2023-05-09T13:38:43;100061.00;;;20.40
11849;BMP180;5983;49.966;8.052;2023-05-09T13:41:11;100048.00;;;20.40
11849;BMP180;5983;49.966;8.052;2023-05-09T13:43:39;100049.00;;;20.40
11849;BMP180;5983;49.966;8.052;2023-05-09T13:46:07;100040.00;;;20.40
11849;BMP180;5983;49.966;8.052;2023-05-09T13:48:33;100042.00;;;20.40
11849;BMP180;5983;49.966;8.052;2023-05-09T13:51:00;100042.00;;;20.40
11849;BMP180;5983;49.966;8.052;2023-05-09T13:53:27;100037.00;;;20.40
11849;BMP180;5983;49.966;8.052;2023-05-09T13:55:53;100036.00;;;20.30
11849;BMP180;5983;49.966;8.052;2023-05-09T13:58:20;100032.00;;;20.30
11849;BMP180;5983;49.966;8.052;2023-05-09T14:00:48;100023.00;;;20.20
11849;BMP180;5983;49.966;8.052;2023-05-09T14:03:16;100020.00;;;20.20
11849;BMP180;5983;49.966;8.052;2023-05-09T14:05:42;100015.00;;;20.30
11849;BMP180;5983;49.966;8.052;2023-05-09T14:08:09;100020.00;;;20.30
11849;BMP180;5983;49.966;8.052;2023-05-09T14:10:36;100018.00;;;20.40
11849;BMP180;5983;49.966;8.052;2023-05-09T14:13:03;100014.00;;;20.50
11849;BMP180;5983;49.966;8.052;2023-05-09T14:15:30;100007.00;;;20.50
11849;BMP180;5983;49.966;8.052;2023-05-09T14:17:58;100006.00;;;20.40